createdAt,value
2023-03-16T00:02:16.403Z,68.87
2023-03-16T00:04:47.970Z,69.00
2023-03-16T00:07:20.463Z,69.03
2023-03-16T00:09:55.077Z,69.02
2023-03-16T00:12:26.843Z,69.12
2023-03-16T00:14:57.135Z,69.18
2023-03-16T00:17:29.156Z,69.21
2023-03-16T00:20:00.468Z,69.31
2023-03-16T00:22:31.157Z,69.30
2023-03-16T00:25:02.451Z,69.23
2023-03-16T00:27:31.351Z,69.33
2023-03-16T00:30:03.966Z,69.31
2023-03-16T00:32:36.053Z,69.35
2023-03-16T00:35:09.399Z,69.28
2023-03-16T00:37:41.080Z,69.45
2023-03-16T00:40:15.172Z,69.48
2023-03-16T00:42:47.972Z,69.49
2023-03-16T00:45:19.584Z,69.60
2023-03-16T00:47:49.511Z,69.59
2023-03-16T00:50:22.691Z,69.71
2023-03-16T00:52:54.376Z,69.72
2023-03-16T00:55:25.194Z,69.79
2023-03-16T00:57:55.494Z,69.78
2023-03-16T01:00:29.065Z,69.81
2023-03-16T01:02:59.703Z,69.79
2023-03-16T01:05:29.358Z,69.83
2023-03-16T01:08:00.343Z,69.75
2023-03-16T01:10:33.413Z,69.78
2023-03-16T01:13:03.392Z,69.66
2023-03-16T01:15:35.251Z,69.87
2023-03-16T01:18:06.844Z,69.98
2023-03-16T01:20:37.270Z,69.98
2023-03-16T01:23:10.919Z,70.00
2023-03-16T01:25:41.738Z,70.02
2023-03-16T01:28:13.954Z,69.91
2023-03-16T01:30:44.531Z,70.08
2023-03-16T01:33:13.768Z,70.10
2023-03-16T01:35:55.577Z,70.26
2023-03-16T01:38:27.343Z,70.30
2023-03-16T01:40:57.481Z,70.21
2023-03-16T01:43:31.086Z,70.30
2023-03-16T01:46:07.668Z,70.13
2023-03-16T01:48:45.850Z,69.99
2023-03-16T01:51:34.936Z,70.15
2023-03-16T01:54:23.092Z,70.23
2023-03-16T01:57:15.741Z,70.36
2023-03-16T02:00:00.333Z,70.31
2023-03-16T02:02:33.142Z,70.32
2023-03-16T02:05:16.594Z,70.44
2023-03-16T02:07:53.352Z,70.29
2023-03-16T02:10:24.760Z,70.40
2023-03-16T02:12:55.347Z,70.33
2023-03-16T02:15:26.570Z,70.12
2023-03-16T02:18:01.837Z,70.03
2023-03-16T02:20:49.838Z,70.05
2023-03-16T02:23:22.560Z,70.15
2023-03-16T02:26:04.837Z,70.44
2023-03-16T02:29:11.611Z,70.24
2023-03-16T02:31:43.237Z,70.66
2023-03-16T02:34:17.322Z,70.91
2023-03-16T02:36:50.537Z,71.00
2023-03-16T02:39:21.674Z,71.12
2023-03-16T02:41:53.298Z,71.09
2023-03-16T02:44:28.132Z,71.10
2023-03-16T02:47:06.690Z,71.08
2023-03-16T02:49:43.662Z,71.19
2023-03-16T02:52:14.443Z,71.22
2023-03-16T02:54:45.806Z,71.09
2023-03-16T02:57:17.193Z,71.15
2023-03-16T02:59:47.917Z,71.17
2023-03-16T03:02:17.241Z,71.03
2023-03-16T03:04:47.360Z,70.94
2023-03-16T03:07:19.195Z,70.92
2023-03-16T03:10:04.691Z,71.12
2023-03-16T03:12:35.637Z,71.08
2023-03-16T03:15:08.560Z,71.14
2023-03-16T03:17:45.592Z,71.18
2023-03-16T03:20:18.360Z,71.13
2023-03-16T03:22:53.057Z,71.04
2023-03-16T03:25:25.286Z,71.16
2023-03-16T03:28:00.233Z,71.24
2023-03-16T03:30:33.595Z,71.22
2023-03-16T03:33:07.106Z,71.31
2023-03-16T03:35:39.349Z,71.31
2023-03-16T03:38:12.000Z,71.30
2023-03-16T03:40:43.671Z,71.39
2023-03-16T03:43:15.663Z,71.39
2023-03-16T03:45:47.169Z,71.53
2023-03-16T03:48:19.325Z,71.67
2023-03-16T03:50:50.932Z,71.50
2023-03-16T03:53:48.219Z,71.56
2023-03-16T03:56:25.963Z,71.55
2023-03-16T03:58:55.089Z,71.58
2023-03-16T04:01:35.541Z,71.70
2023-03-16T04:04:09.145Z,71.83
2023-03-16T04:06:38.809Z,71.68
2023-03-16T04:09:09.233Z,71.54
2023-03-16T04:11:38.771Z,71.59
2023-03-16T04:14:12.190Z,71.69
2023-03-16T04:16:41.546Z,71.72
2023-03-16T04:19:14.263Z,71.79
2023-03-16T04:21:45.591Z,71.94
2023-03-16T04:24:15.724Z,71.94
2023-03-16T04:26:48.213Z,71.97
2023-03-16T04:29:19.031Z,71.93
2023-03-16T04:31:52.043Z,72.06
2023-03-16T04:34:26.087Z,72.04
2023-03-16T04:36:58.865Z,72.08
2023-03-16T04:39:30.998Z,72.15
2023-03-16T04:42:02.042Z,72.07
2023-03-16T04:44:34.800Z,72.14
2023-03-16T04:47:10.164Z,72.12
2023-03-16T04:49:47.429Z,72.25
2023-03-16T04:52:23.058Z,72.31
2023-03-16T04:54:58.251Z,72.31
2023-03-16T04:57:27.932Z,72.38
2023-03-16T04:59:58.516Z,72.35
2023-03-16T05:02:41.881Z,72.47
2023-03-16T05:05:15.674Z,72.53
2023-03-16T05:07:45.831Z,72.48
2023-03-16T05:10:19.192Z,72.48
2023-03-16T05:12:54.269Z,72.58
2023-03-16T05:15:27.233Z,72.57
2023-03-16T05:18:03.436Z,72.62
2023-03-16T05:20:35.392Z,72.64
2023-03-16T05:23:05.423Z,72.60
2023-03-16T05:25:39.102Z,72.48
2023-03-16T05:28:08.380Z,72.49
2023-03-16T05:30:45.793Z,72.53
2023-03-16T05:33:22.054Z,72.63
2023-03-16T05:35:53.526Z,72.55
2023-03-16T05:38:26.449Z,72.61
2023-03-16T05:41:03.318Z,72.58
2023-03-16T05:43:50.810Z,72.58
2023-03-16T05:46:21.028Z,72.67
2023-03-16T05:48:54.034Z,72.72
2023-03-16T05:51:27.702Z,72.68
2023-03-16T05:53:59.600Z,72.96
2023-03-16T05:56:36.859Z,72.99
2023-03-16T05:59:07.433Z,73.04
2023-03-16T06:01:41.295Z,73.11
2023-03-16T06:04:13.601Z,73.07
2023-03-16T06:06:56.953Z,73.34
2023-03-16T06:09:29.791Z,73.22
2023-03-16T06:12:01.142Z,73.34
2023-03-16T06:14:37.804Z,73.45
2023-03-16T06:17:08.923Z,73.39
2023-03-16T06:19:39.662Z,73.26
2023-03-16T06:22:12.010Z,73.27
2023-03-16T06:24:42.690Z,73.57
2023-03-16T06:27:15.030Z,73.74
2023-03-16T06:29:57.322Z,73.48
2023-03-16T06:32:28.063Z,73.45
2023-03-16T06:35:00.126Z,73.76
2023-03-16T06:37:34.483Z,73.49
2023-03-16T06:40:09.093Z,73.96
2023-03-16T06:42:45.112Z,73.34
2023-03-16T06:45:17.887Z,70.93
2023-03-16T06:47:48.687Z,69.48
2023-03-16T06:50:19.125Z,67.79
2023-03-16T06:52:49.974Z,66.68
2023-03-16T06:55:21.485Z,65.61
2023-03-16T06:57:51.189Z,65.63
2023-03-16T07:00:22.468Z,65.12
2023-03-16T07:02:53.526Z,64.72
2023-03-16T07:05:25.491Z,63.70
2023-03-16T07:07:57.017Z,64.83
2023-03-16T07:10:28.647Z,65.60
2023-03-16T07:12:59.007Z,65.93
2023-03-16T07:15:28.895Z,67.07
2023-03-16T07:17:59.724Z,66.74
2023-03-16T07:20:31.722Z,66.16
2023-03-16T07:23:05.651Z,65.27
2023-03-16T07:25:35.868Z,64.72
2023-03-16T07:28:07.297Z,64.21
2023-03-16T07:30:45.859Z,62.19
2023-03-16T07:33:26.888Z,62.17
2023-03-16T07:35:56.545Z,60.69
2023-03-16T07:38:25.918Z,61.14
2023-03-16T07:40:55.187Z,60.92
2023-03-16T07:43:25.278Z,60.39
2023-03-16T07:45:57.494Z,60.23
2023-03-16T07:48:26.984Z,61.17
2023-03-16T07:51:00.710Z,61.58
2023-03-16T07:53:30.633Z,62.32
2023-03-16T07:56:15.972Z,61.95
2023-03-16T07:58:48.629Z,63.71
2023-03-16T08:01:22.206Z,64.98
2023-03-16T08:03:54.177Z,67.05
2023-03-16T08:06:27.189Z,67.11
2023-03-16T08:08:57.349Z,67.84
2023-03-16T08:16:25.806Z,68.58
2023-03-16T08:18:58.792Z,68.25
2023-03-16T08:21:30.744Z,67.45
2023-03-16T08:24:02.277Z,67.17
2023-03-16T08:26:32.117Z,67.18
2023-03-16T08:29:04.593Z,67.60
2023-03-16T08:31:44.500Z,67.28
2023-03-16T08:34:18.654Z,67.56
2023-03-16T08:43:07.030Z,67.99
2023-03-16T08:45:36.444Z,68.03
2023-03-16T08:48:08.547Z,67.09
2023-03-16T08:50:44.477Z,65.98
2023-03-16T08:53:14.888Z,63.36
2023-03-16T08:55:44.387Z,62.18
2023-03-16T08:58:15.798Z,63.82
2023-03-16T09:00:48.261Z,64.85
2023-03-16T09:03:20.235Z,64.70
2023-03-16T09:05:53.002Z,65.58
2023-03-16T09:08:24.655Z,65.87
2023-03-16T09:11:06.419Z,66.16
2023-03-16T09:13:41.832Z,66.32
2023-03-16T09:16:15.254Z,66.83
2023-03-16T09:18:45.425Z,67.11
2023-03-16T09:21:16.119Z,66.00
2023-03-16T09:23:46.518Z,65.77
2023-03-16T09:26:19.978Z,66.02
2023-03-16T09:28:55.866Z,65.04
2023-03-16T09:31:27.356Z,63.86
2023-03-16T09:34:02.009Z,62.76
2023-03-16T09:36:34.951Z,61.91
2023-03-16T09:39:04.959Z,61.38
2023-03-16T09:41:49.750Z,60.87
2023-03-16T09:44:56.599Z,60.05
2023-03-16T09:47:31.389Z,57.77
2023-03-16T09:50:06.321Z,57.42
2023-03-16T09:52:56.352Z,56.45
2023-03-16T09:55:29.946Z,56.43
2023-03-16T09:58:06.429Z,57.52
2023-03-16T10:00:42.475Z,57.55
2023-03-16T10:03:36.619Z,59.81
2023-03-16T10:06:12.036Z,60.71
2023-03-16T10:08:46.112Z,61.27
2023-03-16T10:11:40.685Z,61.11
2023-03-16T10:14:28.588Z,59.38
2023-03-16T10:17:19.341Z,61.02
2023-03-16T10:19:55.011Z,59.71
2023-03-16T10:22:36.071Z,59.05
2023-03-16T10:25:13.432Z,59.35
2023-03-16T10:27:46.586Z,57.80
2023-03-16T10:30:30.470Z,57.96
2023-03-16T10:33:19.083Z,57.88
2023-03-16T10:35:59.047Z,58.36
2023-03-16T10:38:59.656Z,59.71
2023-03-16T10:41:37.295Z,61.10
2023-03-16T10:44:40.741Z,60.85
2023-03-16T10:50:38.577Z,60.80
2023-03-16T10:53:42.198Z,61.05
2023-03-16T10:56:23.037Z,61.43
2023-03-16T10:58:53.146Z,61.31
2023-03-16T11:01:33.103Z,61.03
2023-03-16T11:04:16.029Z,60.65
2023-03-16T11:06:58.787Z,60.87
2023-03-16T11:09:39.182Z,61.29
2023-03-16T11:12:23.589Z,61.16
2023-03-16T11:14:55.496Z,61.72
2023-03-16T11:17:37.086Z,61.68
2023-03-16T11:20:18.229Z,62.53
2023-03-16T11:22:50.978Z,62.65
2023-03-16T11:25:29.749Z,62.26
2023-03-16T11:28:26.114Z,62.68
2023-03-16T11:30:59.792Z,62.63
2023-03-16T11:33:32.530Z,62.74
2023-03-16T11:36:49.961Z,62.19
2023-03-16T11:39:45.197Z,62.31
2023-03-16T11:42:47.925Z,62.46
2023-03-16T11:45:23.688Z,62.31
2023-03-16T11:48:19.936Z,62.64
2023-03-16T11:51:30.940Z,62.28
2023-03-16T11:54:25.550Z,62.26
2023-03-16T11:57:02.541Z,62.51
2023-03-16T11:59:32.309Z,62.27
2023-03-16T12:02:29.964Z,62.37
2023-03-16T12:05:08.260Z,62.52
2023-03-16T12:07:57.766Z,62.59
2023-03-16T12:10:40.213Z,62.62
2023-03-16T12:13:22.213Z,62.26
2023-03-16T12:16:16.987Z,62.51
2023-03-16T12:18:53.615Z,61.88
2023-03-16T12:21:31.959Z,62.02
2023-03-16T12:24:13.141Z,61.80
2023-03-16T12:26:45.889Z,61.19
2023-03-16T12:29:38.415Z,61.36
2023-03-16T12:32:41.556Z,61.21
2023-03-16T12:35:53.293Z,61.39
2023-03-16T12:38:51.171Z,61.88
2023-03-16T12:41:31.018Z,62.07
2023-03-16T12:44:33.494Z,62.11
2023-03-16T12:47:21.928Z,62.18
2023-03-16T12:49:54.749Z,62.56
2023-03-16T12:52:24.635Z,62.43
2023-03-16T12:55:08.344Z,62.62
2023-03-16T12:57:43.772Z,62.89
2023-03-16T13:00:17.042Z,62.97
2023-03-16T13:02:57.881Z,62.71
2023-03-16T13:05:39.481Z,62.64
2023-03-16T13:08:19.367Z,62.93
2023-03-16T13:11:18.501Z,62.99
2023-03-16T13:14:02.948Z,63.19
2023-03-16T13:16:36.752Z,63.36
2023-03-16T13:19:32.938Z,63.49
2023-03-16T13:22:28.860Z,63.99
2023-03-16T13:25:37.358Z,63.26
2023-03-16T13:28:15.692Z,62.43
2023-03-16T13:30:50.571Z,62.13
2023-03-16T13:33:32.730Z,62.51
2023-03-16T13:36:14.792Z,61.93
2023-03-16T13:39:19.662Z,62.19
2023-03-16T13:42:22.969Z,62.67
2023-03-16T13:44:58.788Z,62.41
2023-03-16T13:47:29.018Z,61.81
2023-03-16T13:50:01.471Z,61.64
2023-03-16T13:52:36.635Z,61.64
2023-03-16T13:55:17.212Z,61.84
2023-03-16T13:57:48.411Z,61.95
2023-03-16T14:00:26.251Z,62.21
2023-03-16T14:02:58.123Z,62.17
2023-03-16T14:05:33.857Z,62.35
2023-03-16T14:08:05.341Z,62.29
2023-03-16T14:10:39.100Z,62.44
2023-03-16T14:13:24.544Z,62.81
2023-03-16T14:16:19.181Z,62.60
2023-03-16T14:19:14.474Z,62.69
2023-03-16T14:21:49.666Z,62.63
2023-03-16T14:24:35.882Z,62.90
2023-03-16T14:27:40.856Z,62.85
2023-03-16T14:30:18.853Z,62.72
2023-03-16T14:33:01.951Z,62.92
2023-03-16T14:35:45.608Z,63.03
2023-03-16T14:38:24.659Z,62.97
2023-03-16T14:40:57.292Z,62.75
2023-03-16T14:43:33.771Z,63.12
2023-03-16T14:46:07.736Z,62.92
2023-03-16T14:48:38.223Z,62.96
2023-03-16T14:51:20.882Z,62.84
2023-03-16T14:53:48.708Z,63.14
2023-03-16T14:56:17.340Z,63.22
2023-03-16T14:58:45.314Z,63.33
2023-03-16T15:01:18.655Z,62.92
2023-03-16T15:04:02.157Z,63.18
2023-03-16T15:06:35.439Z,63.22
2023-03-16T15:09:08.088Z,63.15
2023-03-16T15:11:38.886Z,63.56
2023-03-16T15:14:36.740Z,63.66
2023-03-16T15:17:07.028Z,63.87
2023-03-16T15:19:37.652Z,63.87
2023-03-16T15:22:13.918Z,63.92
2023-03-16T15:24:46.743Z,63.82
2023-03-16T15:27:27.150Z,63.83
2023-03-16T15:30:01.221Z,63.70
2023-03-16T15:32:32.274Z,63.89
2023-03-16T15:35:01.974Z,63.93
2023-03-16T15:37:33.224Z,64.00
2023-03-16T15:40:06.563Z,64.27
2023-03-16T15:42:38.377Z,64.15
2023-03-16T15:45:21.232Z,64.38
2023-03-16T15:47:53.798Z,64.00
2023-03-16T15:50:25.648Z,64.25
2023-03-16T15:53:13.268Z,64.47
2023-03-16T15:55:50.463Z,64.36
2023-03-16T15:58:25.929Z,64.61
2023-03-16T16:01:04.080Z,64.72
2023-03-16T16:03:34.591Z,64.60
2023-03-16T16:06:04.748Z,64.56
2023-03-16T16:08:34.603Z,64.79
2023-03-16T16:11:10.390Z,64.72
2023-03-16T16:13:44.934Z,64.84
2023-03-16T16:16:18.207Z,64.65
2023-03-16T16:18:49.189Z,64.69
2023-03-16T16:21:31.527Z,64.71
2023-03-16T16:24:06.637Z,64.78
2023-03-16T16:26:53.762Z,64.77
2023-03-16T16:29:27.546Z,64.79
2023-03-16T16:32:01.057Z,64.74
2023-03-16T16:34:32.909Z,64.83
2023-03-16T16:37:09.900Z,64.55
2023-03-16T16:39:50.633Z,64.50
2023-03-16T16:42:35.884Z,64.59
2023-03-16T16:45:28.625Z,64.38
2023-03-16T16:48:13.957Z,64.53
2023-03-16T16:51:01.039Z,64.92
2023-03-16T16:53:36.110Z,64.85
2023-03-16T16:56:21.993Z,64.84
2023-03-16T16:59:00.503Z,64.58
2023-03-16T17:01:37.795Z,64.70
2023-03-16T17:04:26.914Z,64.63
2023-03-16T17:07:06.566Z,64.81
2023-03-16T17:09:48.237Z,65.04
2023-03-16T17:12:34.166Z,64.85
2023-03-16T17:15:47.871Z,65.11
2023-03-16T17:18:28.764Z,64.85
2023-03-16T17:21:05.498Z,64.74
2023-03-16T17:23:58.203Z,64.83
2023-03-16T17:26:37.775Z,64.86
2023-03-16T17:29:46.608Z,64.85
2023-03-16T17:32:26.844Z,64.81
2023-03-16T17:35:05.589Z,64.73
2023-03-16T17:37:44.197Z,64.81
2023-03-16T17:40:32.850Z,65.03
2023-03-16T17:43:32.189Z,64.95
2023-03-16T17:46:12.272Z,65.04
2023-03-16T17:48:51.741Z,65.14
2023-03-16T17:51:27.768Z,65.08
2023-03-16T17:53:59.247Z,65.12
2023-03-16T17:56:32.558Z,64.99
2023-03-16T17:59:22.143Z,65.23
2023-03-16T18:02:01.440Z,65.13
2023-03-16T18:04:37.283Z,65.16
2023-03-16T18:07:17.689Z,65.26
2023-03-16T18:09:50.095Z,65.33
2023-03-16T18:12:27.786Z,64.88
2023-03-16T18:15:03.385Z,64.70
2023-03-16T18:17:37.135Z,64.87
2023-03-16T18:20:37.440Z,64.93
2023-03-16T18:23:26.675Z,65.12
2023-03-16T18:26:04.267Z,65.62
2023-03-16T18:28:39.917Z,65.46
2023-03-16T18:31:29.745Z,65.54
2023-03-16T18:34:07.787Z,65.84
2023-03-16T18:36:50.098Z,65.66
2023-03-16T18:39:23.261Z,65.77
2023-03-16T18:41:59.135Z,65.97
2023-03-16T18:44:33.582Z,65.76
2023-03-16T18:47:09.976Z,65.87
2023-03-16T18:49:52.353Z,65.57
2023-03-16T18:52:33.470Z,65.61
2023-03-16T18:55:21.836Z,65.47
2023-03-16T18:57:57.706Z,65.82
2023-03-16T19:00:31.571Z,65.91
2023-03-16T19:03:07.694Z,66.01
2023-03-16T19:05:42.734Z,66.11
2023-03-16T19:08:18.256Z,65.96
2023-03-16T19:10:55.088Z,66.03
2023-03-16T19:13:28.893Z,66.06
2023-03-16T19:16:04.419Z,66.17
2023-03-16T19:18:43.926Z,66.22
2023-03-16T19:21:25.415Z,66.16
2023-03-16T19:24:06.567Z,66.24
2023-03-16T19:26:40.526Z,66.34
2023-03-16T19:29:16.353Z,66.38
2023-03-16T19:31:59.841Z,66.32
2023-03-16T19:34:36.826Z,66.11
2023-03-16T19:37:16.482Z,66.20
2023-03-16T19:39:54.054Z,66.42
2023-03-16T19:42:37.714Z,66.57
2023-03-16T19:45:23.855Z,66.72
2023-03-16T19:47:58.097Z,66.61
2023-03-16T19:50:32.169Z,66.71
2023-03-16T19:53:14.616Z,66.52
2023-03-16T19:55:48.577Z,66.67
2023-03-16T19:58:36.535Z,66.60
2023-03-16T20:01:30.412Z,66.49
2023-03-16T20:04:06.630Z,66.55
2023-03-16T20:06:41.116Z,66.55
2023-03-16T20:09:12.559Z,66.80
2023-03-16T20:11:58.716Z,66.75
2023-03-16T20:14:39.860Z,66.88
2023-03-16T20:17:21.473Z,66.66
2023-03-16T20:19:54.959Z,66.84
2023-03-16T20:22:30.572Z,66.69
2023-03-16T20:25:02.928Z,66.57
2023-03-16T20:27:46.256Z,66.81
2023-03-16T20:30:21.183Z,66.69
2023-03-16T20:32:54.021Z,66.80
2023-03-16T20:35:29.474Z,66.97
2023-03-16T20:38:02.682Z,66.97
2023-03-16T20:40:36.534Z,67.00
2023-03-16T20:43:24.812Z,67.10
2023-03-16T20:46:08.710Z,67.14
2023-03-16T20:48:45.025Z,67.46
2023-03-16T20:51:19.550Z,67.40
2023-03-16T20:53:54.675Z,67.56
2023-03-16T20:56:29.029Z,67.17
2023-03-16T20:59:00.329Z,67.13
2023-03-16T21:01:34.490Z,67.00
2023-03-16T21:04:23.054Z,67.17
2023-03-16T21:06:57.260Z,67.30
2023-03-16T21:09:34.467Z,67.17
2023-03-16T21:12:25.820Z,67.17
2023-03-16T21:15:01.250Z,67.40
2023-03-16T21:17:38.716Z,67.55
2023-03-16T21:20:21.637Z,67.38
2023-03-16T21:22:53.634Z,67.43
2023-03-16T21:25:35.137Z,67.46
2023-03-16T21:28:06.265Z,67.38
2023-03-16T21:30:57.040Z,67.45
2023-03-16T21:33:39.975Z,67.22
2023-03-16T21:36:19.900Z,67.47
2023-03-16T21:38:53.345Z,67.58
2023-03-16T21:41:24.220Z,67.65
2023-03-16T21:43:57.220Z,67.60
2023-03-16T21:46:26.821Z,67.71
2023-03-16T21:48:56.365Z,67.55
2023-03-16T21:51:31.906Z,67.58
2023-03-16T21:54:02.097Z,67.67
2023-03-16T21:56:34.454Z,67.63
2023-03-16T21:59:03.974Z,67.66
2023-03-16T22:01:38.248Z,67.80
2023-03-16T22:04:16.996Z,67.83
2023-03-16T22:06:47.678Z,68.02
2023-03-16T22:09:22.905Z,68.11
2023-03-16T22:11:53.627Z,67.97
2023-03-16T22:14:26.054Z,67.77
2023-03-16T22:16:57.447Z,67.80
2023-03-16T22:19:27.986Z,68.05
2023-03-16T22:21:57.326Z,68.03
2023-03-16T22:24:29.623Z,68.20
2023-03-16T22:27:01.506Z,68.30
2023-03-16T22:29:34.202Z,68.26
2023-03-16T22:32:11.007Z,68.19
2023-03-16T22:34:46.989Z,68.10
2023-03-16T22:37:21.426Z,68.09
2023-03-16T22:39:53.419Z,68.08
2023-03-16T22:42:43.866Z,68.06
2023-03-16T22:45:35.006Z,68.29
2023-03-16T22:48:23.393Z,68.64
2023-03-16T22:50:55.968Z,68.72
2023-03-16T22:53:56.546Z,68.49
2023-03-16T22:56:28.187Z,68.73
2023-03-16T22:59:02.663Z,68.58
2023-03-16T23:01:38.101Z,68.72
2023-03-16T23:04:38.131Z,68.46
2023-03-16T23:07:20.628Z,68.25
2023-03-16T23:09:51.129Z,68.38
2023-03-16T23:12:22.625Z,68.50
2023-03-16T23:14:54.088Z,68.57
2023-03-16T23:17:23.173Z,68.50
2023-03-16T23:19:54.896Z,68.50
2023-03-16T23:22:24.950Z,68.56
2023-03-16T23:24:57.182Z,68.57
2023-03-16T23:27:26.568Z,68.68
2023-03-16T23:29:57.107Z,68.46
2023-03-16T23:32:28.194Z,68.53
2023-03-16T23:35:01.395Z,68.60
2023-03-16T23:37:32.961Z,68.69
2023-03-16T23:40:06.277Z,68.63
2023-03-16T23:42:40.056Z,68.71
2023-03-16T23:45:32.027Z,68.80
2023-03-16T23:48:07.428Z,68.92
2023-03-16T23:50:40.676Z,69.05
2023-03-16T23:53:18.010Z,68.93
2023-03-16T23:55:50.206Z,68.92
2023-03-16T23:58:19.844Z,68.80
